sensor_id;sensor_type;location;lat;lon;timestamp;P1;durP1;ratioP1;P2;durP2;ratioP2
44098;SDS011;29762;50.086;14.364;2022-10-22T00:04:19;3.08;;;2.78;;
44098;SDS011;29762;50.086;14.364;2022-10-22T00:09:38;3.60;;;3.30;;
44098;SDS011;29762;50.086;14.364;2022-10-22T00:14:58;3.80;;;3.33;;
44098;SDS011;29762;50.086;14.364;2022-10-22T00:20:17;3.72;;;3.33;;
44098;SDS011;29762;50.086;14.364;2022-10-22T00:25:37;3.60;;;3.30;;
44098;SDS011;29762;50.086;14.364;2022-10-22T00:30:57;3.60;;;3.20;;
44098;SDS011;29762;50.086;14.364;2022-10-22T00:36:18;3.35;;;2.88;;
44098;SDS011;29762;50.086;14.364;2022-10-22T00:41:38;3.30;;;3.00;;
44098;SDS011;29762;50.086;14.364;2022-10-22T00:46:57;4.03;;;3.33;;
44098;SDS011;29762;50.086;14.364;2022-10-22T00:52:17;3.55;;;3.10;;
44098;SDS011;29762;50.086;14.364;2022-10-22T00:57:37;3.38;;;2.92;;
44098;SDS011;29762;50.086;14.364;2022-10-22T01:02:56;3.25;;;2.95;;
44098;SDS011;29762;50.086;14.364;2022-10-22T01:08:38;3.15;;;2.80;;
44098;SDS011;29762;50.086;14.364;2022-10-22T01:14:17;3.13;;;2.83;;
44098;SDS011;29762;50.086;14.364;2022-10-22T01:19:47;3.20;;;2.90;;
44098;SDS011;29762;50.086;14.364;2022-10-22T01:30:55;3.20;;;2.80;;
44098;SDS011;29762;50.086;14.364;2022-10-22T01:36:15;3.30;;;3.00;;
44098;SDS011;29762;50.086;14.364;2022-10-22T01:41:36;3.10;;;2.90;;
44098;SDS011;29762;50.086;14.364;2022-10-22T01:58:07;3.05;;;2.70;;
44098;SDS011;29762;50.086;14.364;2022-10-22T02:03:48;3.30;;;3.00;;
44098;SDS011;29762;50.086;14.364;2022-10-22T02:09:14;3.20;;;2.90;;
44098;SDS011;29762;50.086;14.364;2022-10-22T02:14:36;3.15;;;2.80;;
44098;SDS011;29762;50.086;14.364;2022-10-22T02:20:00;2.95;;;2.65;;
44098;SDS011;29762;50.086;14.364;2022-10-22T02:25:28;3.17;;;2.88;;
44098;SDS011;29762;50.086;14.364;2022-10-22T02:30:54;3.22;;;2.65;;
44098;SDS011;29762;50.086;14.364;2022-10-22T02:36:15;3.53;;;3.00;;
44098;SDS011;29762;50.086;14.364;2022-10-22T02:41:35;2.92;;;2.70;;
44098;SDS011;29762;50.086;14.364;2022-10-22T02:46:55;3.67;;;2.85;;
44098;SDS011;29762;50.086;14.364;2022-10-22T02:52:15;3.80;;;2.58;;
44098;SDS011;29762;50.086;14.364;2022-10-22T02:57:34;3.10;;;2.80;;
44098;SDS011;29762;50.086;14.364;2022-10-22T03:02:53;2.88;;;2.67;;
44098;SDS011;29762;50.086;14.364;2022-10-22T03:08:13;2.70;;;2.50;;
44098;SDS011;29762;50.086;14.364;2022-10-22T03:13:32;3.70;;;2.60;;
44098;SDS011;29762;50.086;14.364;2022-10-22T03:18:51;3.08;;;2.78;;
44098;SDS011;29762;50.086;14.364;2022-10-22T03:24:12;3.03;;;2.60;;
44098;SDS011;29762;50.086;14.364;2022-10-22T03:29:36;2.70;;;2.50;;
44098;SDS011;29762;50.086;14.364;2022-10-22T03:34:57;2.70;;;2.50;;
44098;SDS011;29762;50.086;14.364;2022-10-22T03:40:16;2.90;;;2.70;;
44098;SDS011;29762;50.086;14.364;2022-10-22T03:45:36;2.65;;;2.38;;
44098;SDS011;29762;50.086;14.364;2022-10-22T03:50:55;3.00;;;2.70;;
44098;SDS011;29762;50.086;14.364;2022-10-22T03:56:14;3.33;;;2.60;;
44098;SDS011;29762;50.086;14.364;2022-10-22T04:01:34;3.40;;;2.60;;
44098;SDS011;29762;50.086;14.364;2022-10-22T04:06:53;2.75;;;2.55;;
44098;SDS011;29762;50.086;14.364;2022-10-22T04:12:13;2.97;;;2.40;;
44098;SDS011;29762;50.086;14.364;2022-10-22T04:17:34;2.65;;;2.45;;
44098;SDS011;29762;50.086;14.364;2022-10-22T04:22:54;2.65;;;2.45;;
44098;SDS011;29762;50.086;14.364;2022-10-22T04:28:13;2.70;;;2.50;;
44098;SDS011;29762;50.086;14.364;2022-10-22T04:33:32;2.60;;;2.40;;
44098;SDS011;29762;50.086;14.364;2022-10-22T04:38:55;2.58;;;2.38;;
44098;SDS011;29762;50.086;14.364;2022-10-22T04:44:16;2.67;;;2.47;;
44098;SDS011;29762;50.086;14.364;2022-10-22T04:49:35;2.65;;;2.45;;
44098;SDS011;29762;50.086;14.364;2022-10-22T04:54:54;3.00;;;2.50;;
44098;SDS011;29762;50.086;14.364;2022-10-22T05:00:14;2.30;;;2.10;;
44098;SDS011;29762;50.086;14.364;2022-10-22T05:05:34;2.85;;;2.40;;
44098;SDS011;29762;50.086;14.364;2022-10-22T05:10:54;2.53;;;2.33;;
44098;SDS011;29762;50.086;14.364;2022-10-22T05:16:13;2.40;;;2.20;;
44098;SDS011;29762;50.086;14.364;2022-10-22T05:21:33;2.47;;;2.25;;
44098;SDS011;29762;50.086;14.364;2022-10-22T05:26:53;2.50;;;2.30;;
44098;SDS011;29762;50.086;14.364;2022-10-22T05:32:14;2.40;;;2.20;;
44098;SDS011;29762;50.086;14.364;2022-10-22T05:37:33;2.80;;;2.35;;
44098;SDS011;29762;50.086;14.364;2022-10-22T05:42:52;2.30;;;2.10;;
44098;SDS011;29762;50.086;14.364;2022-10-22T05:48:11;3.20;;;2.60;;
44098;SDS011;29762;50.086;14.364;2022-10-22T05:53:31;3.08;;;2.38;;
44098;SDS011;29762;50.086;14.364;2022-10-22T05:58:51;3.40;;;2.20;;
44098;SDS011;29762;50.086;14.364;2022-10-22T06:04:11;2.47;;;2.28;;
44098;SDS011;29762;50.086;14.364;2022-10-22T06:09:32;2.28;;;2.08;;
44098;SDS011;29762;50.086;14.364;2022-10-22T06:14:53;2.83;;;2.30;;
44098;SDS011;29762;50.086;14.364;2022-10-22T06:20:13;2.30;;;2.10;;
44098;SDS011;29762;50.086;14.364;2022-10-22T06:25:33;2.30;;;2.10;;
44098;SDS011;29762;50.086;14.364;2022-10-22T06:30:52;2.67;;;2.47;;
44098;SDS011;29762;50.086;14.364;2022-10-22T06:36:13;2.50;;;2.30;;
44098;SDS011;29762;50.086;14.364;2022-10-22T06:41:33;2.28;;;2.08;;
44098;SDS011;29762;50.086;14.364;2022-10-22T06:46:53;2.35;;;2.15;;
44098;SDS011;29762;50.086;14.364;2022-10-22T06:52:12;2.40;;;2.20;;
44098;SDS011;29762;50.086;14.364;2022-10-22T06:57:31;2.42;;;2.22;;
44098;SDS011;29762;50.086;14.364;2022-10-22T07:02:51;2.78;;;2.50;;
44098;SDS011;29762;50.086;14.364;2022-10-22T07:08:11;2.55;;;2.35;;
44098;SDS011;29762;50.086;14.364;2022-10-22T07:13:30;2.60;;;2.40;;
44098;SDS011;29762;50.086;14.364;2022-10-22T07:18:49;2.72;;;2.53;;
44098;SDS011;29762;50.086;14.364;2022-10-22T07:24:09;2.72;;;2.53;;
44098;SDS011;29762;50.086;14.364;2022-10-22T07:29:28;2.70;;;2.50;;
44098;SDS011;29762;50.086;14.364;2022-10-22T07:34:48;2.45;;;2.25;;
44098;SDS011;29762;50.086;14.364;2022-10-22T07:40:08;2.80;;;2.60;;
44098;SDS011;29762;50.086;14.364;2022-10-22T07:45:29;2.60;;;2.30;;
44098;SDS011;29762;50.086;14.364;2022-10-22T07:50:50;2.47;;;2.28;;
44098;SDS011;29762;50.086;14.364;2022-10-22T07:56:10;2.60;;;2.40;;
44098;SDS011;29762;50.086;14.364;2022-10-22T08:01:29;2.83;;;2.50;;
44098;SDS011;29762;50.086;14.364;2022-10-22T08:06:48;2.50;;;2.30;;
44098;SDS011;29762;50.086;14.364;2022-10-22T08:12:07;2.28;;;2.08;;
44098;SDS011;29762;50.086;14.364;2022-10-22T08:17:27;2.60;;;2.40;;
44098;SDS011;29762;50.086;14.364;2022-10-22T08:22:46;3.00;;;2.40;;
44098;SDS011;29762;50.086;14.364;2022-10-22T08:28:06;2.40;;;2.20;;
44098;SDS011;29762;50.086;14.364;2022-10-22T08:33:25;2.92;;;2.50;;
44098;SDS011;29762;50.086;14.364;2022-10-22T08:38:45;2.50;;;2.30;;
44098;SDS011;29762;50.086;14.364;2022-10-22T08:50:00;3.05;;;2.47;;
44098;SDS011;29762;50.086;14.364;2022-10-22T08:55:20;2.30;;;2.13;;
44098;SDS011;29762;50.086;14.364;2022-10-22T09:00:43;2.35;;;2.15;;
44098;SDS011;29762;50.086;14.364;2022-10-22T09:11:34;2.30;;;2.10;;
44098;SDS011;29762;50.086;14.364;2022-10-22T09:28:16;2.50;;;2.30;;
44098;SDS011;29762;50.086;14.364;2022-10-22T09:33:36;2.42;;;2.22;;
44098;SDS011;29762;50.086;14.364;2022-10-22T09:38:55;2.30;;;2.10;;
44098;SDS011;29762;50.086;14.364;2022-10-22T09:44:16;2.40;;;2.20;;
44098;SDS011;29762;50.086;14.364;2022-10-22T09:49:38;2.40;;;2.20;;
44098;SDS011;29762;50.086;14.364;2022-10-22T09:55:00;2.30;;;2.10;;
44098;SDS011;29762;50.086;14.364;2022-10-22T10:00:21;2.08;;;1.95;;
44098;SDS011;29762;50.086;14.364;2022-10-22T10:05:44;2.30;;;2.10;;
44098;SDS011;29762;50.086;14.364;2022-10-22T10:11:10;2.78;;;2.47;;
44098;SDS011;29762;50.086;14.364;2022-10-22T10:16:51;3.30;;;2.20;;
44098;SDS011;29762;50.086;14.364;2022-10-22T10:22:21;2.63;;;2.30;;
44098;SDS011;29762;50.086;14.364;2022-10-22T10:27:42;2.78;;;2.33;;
44098;SDS011;29762;50.086;14.364;2022-10-22T10:38:37;2.90;;;2.60;;
44098;SDS011;29762;50.086;14.364;2022-10-22T10:49:47;2.25;;;2.15;;
44098;SDS011;29762;50.086;14.364;2022-10-22T10:55:24;2.13;;;2.03;;
44098;SDS011;29762;50.086;14.364;2022-10-22T11:01:31;2.50;;;2.30;;
44098;SDS011;29762;50.086;14.364;2022-10-22T11:06:52;3.47;;;2.15;;
44098;SDS011;29762;50.086;14.364;2022-10-22T11:12:14;2.45;;;2.00;;
44098;SDS011;29762;50.086;14.364;2022-10-22T11:17:46;3.08;;;2.40;;
44098;SDS011;29762;50.086;14.364;2022-10-22T11:23:12;2.38;;;2.17;;
44098;SDS011;29762;50.086;14.364;2022-10-22T11:28:36;2.05;;;1.92;;
44098;SDS011;29762;50.086;14.364;2022-10-22T11:39:56;2.50;;;2.30;;
44098;SDS011;29762;50.086;14.364;2022-10-22T11:50:57;2.30;;;2.10;;
44098;SDS011;29762;50.086;14.364;2022-10-22T11:57:37;2.17;;;2.00;;
44098;SDS011;29762;50.086;14.364;2022-10-22T12:02:45;2.10;;;1.90;;
44098;SDS011;29762;50.086;14.364;2022-10-22T12:13:29;1.70;;;1.60;;
44098;SDS011;29762;50.086;14.364;2022-10-22T12:18:54;2.00;;;1.83;;
44098;SDS011;29762;50.086;14.364;2022-10-22T12:24:16;2.17;;;1.98;;
44098;SDS011;29762;50.086;14.364;2022-10-22T12:29:38;1.90;;;1.80;;
44098;SDS011;29762;50.086;14.364;2022-10-22T12:34:57;1.80;;;1.70;;
44098;SDS011;29762;50.086;14.364;2022-10-22T12:40:24;1.88;;;1.77;;
44098;SDS011;29762;50.086;14.364;2022-10-22T12:45:46;1.92;;;1.80;;
44098;SDS011;29762;50.086;14.364;2022-10-22T12:51:06;1.85;;;1.75;;
44098;SDS011;29762;50.086;14.364;2022-10-22T12:56:28;1.83;;;1.70;;
44098;SDS011;29762;50.086;14.364;2022-10-22T13:01:50;2.60;;;1.73;;
44098;SDS011;29762;50.086;14.364;2022-10-22T13:12:35;2.03;;;1.70;;
44098;SDS011;29762;50.086;14.364;2022-10-22T13:23:51;1.70;;;1.60;;
44098;SDS011;29762;50.086;14.364;2022-10-22T13:29:11;1.70;;;1.60;;
44098;SDS011;29762;50.086;14.364;2022-10-22T13:34:32;1.70;;;1.60;;
44098;SDS011;29762;50.086;14.364;2022-10-22T13:39:53;1.85;;;1.75;;
44098;SDS011;29762;50.086;14.364;2022-10-22T13:45:13;1.65;;;1.55;;
44098;SDS011;29762;50.086;14.364;2022-10-22T13:50:32;2.28;;;1.60;;
44098;SDS011;29762;50.086;14.364;2022-10-22T13:55:51;1.80;;;1.70;;
44098;SDS011;29762;50.086;14.364;2022-10-22T14:01:21;1.60;;;1.50;;
44098;SDS011;29762;50.086;14.364;2022-10-22T14:06:41;1.60;;;1.50;;
44098;SDS011;29762;50.086;14.364;2022-10-22T14:12:01;1.77;;;1.67;;
44098;SDS011;29762;50.086;14.364;2022-10-22T14:17:20;1.50;;;1.40;;
44098;SDS011;29762;50.086;14.364;2022-10-22T14:22:40;1.70;;;1.60;;
44098;SDS011;29762;50.086;14.364;2022-10-22T14:27:59;1.60;;;1.50;;
44098;SDS011;29762;50.086;14.364;2022-10-22T14:38:40;1.80;;;1.40;;
44098;SDS011;29762;50.086;14.364;2022-10-22T14:44:00;1.50;;;1.40;;
44098;SDS011;29762;50.086;14.364;2022-10-22T14:49:19;1.50;;;1.30;;
44098;SDS011;29762;50.086;14.364;2022-10-22T14:54:39;1.58;;;1.48;;
44098;SDS011;29762;50.086;14.364;2022-10-22T14:59:58;1.60;;;1.50;;
44098;SDS011;29762;50.086;14.364;2022-10-22T15:05:17;1.60;;;1.50;;
44098;SDS011;29762;50.086;14.364;2022-10-22T15:10:37;1.67;;;1.58;;
44098;SDS011;29762;50.086;14.364;2022-10-22T15:15:58;1.40;;;1.30;;
44098;SDS011;29762;50.086;14.364;2022-10-22T15:21:20;1.48;;;1.38;;
44098;SDS011;29762;50.086;14.364;2022-10-22T15:26:40;1.58;;;1.33;;
44098;SDS011;29762;50.086;14.364;2022-10-22T15:32:00;1.65;;;1.55;;
44098;SDS011;29762;50.086;14.364;2022-10-22T15:37:20;1.50;;;1.40;;
44098;SDS011;29762;50.086;14.364;2022-10-22T15:42:40;1.58;;;1.48;;
44098;SDS011;29762;50.086;14.364;2022-10-22T15:47:59;1.33;;;1.23;;
44098;SDS011;29762;50.086;14.364;2022-10-22T15:53:18;1.27;;;1.17;;
44098;SDS011;29762;50.086;14.364;2022-10-22T15:58:37;1.60;;;1.50;;
44098;SDS011;29762;50.086;14.364;2022-10-22T16:03:57;1.40;;;1.30;;
44098;SDS011;29762;50.086;14.364;2022-10-22T16:09:22;1.38;;;1.27;;
44098;SDS011;29762;50.086;14.364;2022-10-22T16:14:42;1.20;;;1.20;;
44098;SDS011;29762;50.086;14.364;2022-10-22T16:20:02;1.40;;;1.30;;
44098;SDS011;29762;50.086;14.364;2022-10-22T16:25:21;1.42;;;1.33;;
44098;SDS011;29762;50.086;14.364;2022-10-22T16:30:42;1.33;;;1.23;;
44098;SDS011;29762;50.086;14.364;2022-10-22T16:36:02;1.20;;;1.10;;
44098;SDS011;29762;50.086;14.364;2022-10-22T16:41:22;1.30;;;1.20;;
44098;SDS011;29762;50.086;14.364;2022-10-22T16:46:43;1.30;;;1.20;;
44098;SDS011;29762;50.086;14.364;2022-10-22T16:52:02;1.30;;;1.20;;
44098;SDS011;29762;50.086;14.364;2022-10-22T16:57:22;1.33;;;1.23;;
44098;SDS011;29762;50.086;14.364;2022-10-22T17:02:41;1.20;;;1.10;;
44098;SDS011;29762;50.086;14.364;2022-10-22T17:08:01;1.27;;;1.17;;
44098;SDS011;29762;50.086;14.364;2022-10-22T17:13:20;1.15;;;1.08;;
44098;SDS011;29762;50.086;14.364;2022-10-22T17:18:40;1.30;;;1.20;;
44098;SDS011;29762;50.086;14.364;2022-10-22T17:24:00;1.30;;;1.20;;
44098;SDS011;29762;50.086;14.364;2022-10-22T17:29:19;1.20;;;1.10;;
44098;SDS011;29762;50.086;14.364;2022-10-22T17:34:40;1.17;;;1.10;;
44098;SDS011;29762;50.086;14.364;2022-10-22T17:39:59;1.08;;;1.00;;
44098;SDS011;29762;50.086;14.364;2022-10-22T17:45:19;1.35;;;1.25;;
44098;SDS011;29762;50.086;14.364;2022-10-22T17:50:39;1.00;;;1.00;;
44098;SDS011;29762;50.086;14.364;2022-10-22T17:56:01;0.90;;;0.90;;
44098;SDS011;29762;50.086;14.364;2022-10-22T18:01:29;1.20;;;1.10;;
44098;SDS011;29762;50.086;14.364;2022-10-22T18:06:49;1.10;;;0.90;;
44098;SDS011;29762;50.086;14.364;2022-10-22T18:12:12;1.20;;;1.10;;
44098;SDS011;29762;50.086;14.364;2022-10-22T18:17:32;1.15;;;1.10;;
44098;SDS011;29762;50.086;14.364;2022-10-22T18:22:52;1.10;;;1.10;;
44098;SDS011;29762;50.086;14.364;2022-10-22T18:28:12;1.30;;;1.20;;
44098;SDS011;29762;50.086;14.364;2022-10-22T18:33:33;1.20;;;1.10;;
44098;SDS011;29762;50.086;14.364;2022-10-22T18:39:00;1.10;;;1.00;;
44098;SDS011;29762;50.086;14.364;2022-10-22T18:44:21;1.30;;;1.20;;
44098;SDS011;29762;50.086;14.364;2022-10-22T18:49:43;1.10;;;1.10;;
44098;SDS011;29762;50.086;14.364;2022-10-22T18:55:02;1.17;;;1.10;;
44098;SDS011;29762;50.086;14.364;2022-10-22T19:00:23;1.20;;;1.10;;
44098;SDS011;29762;50.086;14.364;2022-10-22T19:05:53;0.98;;;0.98;;
44098;SDS011;29762;50.086;14.364;2022-10-22T19:11:13;0.90;;;0.90;;
44098;SDS011;29762;50.086;14.364;2022-10-22T19:16:34;1.17;;;1.10;;
44098;SDS011;29762;50.086;14.364;2022-10-22T19:21:55;1.08;;;1.00;;
44098;SDS011;29762;50.086;14.364;2022-10-22T19:27:15;1.08;;;1.08;;
44098;SDS011;29762;50.086;14.364;2022-10-22T19:32:35;1.20;;;1.10;;
44098;SDS011;29762;50.086;14.364;2022-10-22T19:37:55;1.40;;;1.30;;
44098;SDS011;29762;50.086;14.364;2022-10-22T19:43:14;1.10;;;1.00;;
44098;SDS011;29762;50.086;14.364;2022-10-22T19:48:34;1.10;;;1.00;;
44098;SDS011;29762;50.086;14.364;2022-10-22T19:54:04;1.15;;;1.05;;
44098;SDS011;29762;50.086;14.364;2022-10-22T19:59:25;1.10;;;1.10;;
44098;SDS011;29762;50.086;14.364;2022-10-22T20:04:45;0.98;;;0.98;;
44098;SDS011;29762;50.086;14.364;2022-10-22T20:10:05;1.10;;;1.00;;
44098;SDS011;29762;50.086;14.364;2022-10-22T20:15:24;1.08;;;0.98;;
44098;SDS011;29762;50.086;14.364;2022-10-22T20:20:45;1.20;;;1.10;;
44098;SDS011;29762;50.086;14.364;2022-10-22T20:26:04;1.27;;;1.10;;
44098;SDS011;29762;50.086;14.364;2022-10-22T20:31:25;1.00;;;1.00;;
44098;SDS011;29762;50.086;14.364;2022-10-22T20:36:47;1.27;;;1.17;;
44098;SDS011;29762;50.086;14.364;2022-10-22T20:42:06;1.02;;;1.00;;
44098;SDS011;29762;50.086;14.364;2022-10-22T20:47:26;1.13;;;1.02;;
44098;SDS011;29762;50.086;14.364;2022-10-22T20:52:45;1.10;;;1.00;;
44098;SDS011;29762;50.086;14.364;2022-10-22T20:58:06;1.00;;;1.00;;
44098;SDS011;29762;50.086;14.364;2022-10-22T21:03:25;0.93;;;0.93;;
44098;SDS011;29762;50.086;14.364;2022-10-22T21:08:44;1.00;;;1.00;;
44098;SDS011;29762;50.086;14.364;2022-10-22T21:14:04;1.23;;;1.13;;
44098;SDS011;29762;50.086;14.364;2022-10-22T21:19:25;1.23;;;1.13;;
44098;SDS011;29762;50.086;14.364;2022-10-22T21:24:44;0.93;;;0.93;;
44098;SDS011;29762;50.086;14.364;2022-10-22T21:30:04;1.20;;;1.10;;
44098;SDS011;29762;50.086;14.364;2022-10-22T21:35:23;1.15;;;1.05;;
44098;SDS011;29762;50.086;14.364;2022-10-22T21:40:43;1.10;;;1.00;;
44098;SDS011;29762;50.086;14.364;2022-10-22T21:46:24;0.90;;;0.90;;
44098;SDS011;29762;50.086;14.364;2022-10-22T21:51:42;1.00;;;0.98;;
44098;SDS011;29762;50.086;14.364;2022-10-22T21:57:02;0.98;;;0.90;;
44098;SDS011;29762;50.086;14.364;2022-10-22T22:02:22;1.10;;;1.10;;
44098;SDS011;29762;50.086;14.364;2022-10-22T22:07:41;0.98;;;0.98;;
44098;SDS011;29762;50.086;14.364;2022-10-22T22:13:01;0.90;;;0.90;;
44098;SDS011;29762;50.086;14.364;2022-10-22T22:18:20;0.85;;;0.85;;
44098;SDS011;29762;50.086;14.364;2022-10-22T22:23:40;0.93;;;0.93;;
44098;SDS011;29762;50.086;14.364;2022-10-22T22:29:02;0.93;;;0.90;;
44098;SDS011;29762;50.086;14.364;2022-10-22T22:34:21;3.17;;;0.98;;
44098;SDS011;29762;50.086;14.364;2022-10-22T22:39:41;1.10;;;1.00;;
44098;SDS011;29762;50.086;14.364;2022-10-22T22:45:01;0.93;;;0.93;;
44098;SDS011;29762;50.086;14.364;2022-10-22T22:50:21;0.90;;;0.90;;
44098;SDS011;29762;50.086;14.364;2022-10-22T22:55:40;0.90;;;0.90;;
44098;SDS011;29762;50.086;14.364;2022-10-22T23:01:10;0.90;;;0.90;;
44098;SDS011;29762;50.086;14.364;2022-10-22T23:06:34;0.82;;;0.82;;
44098;SDS011;29762;50.086;14.364;2022-10-22T23:11:55;0.80;;;0.80;;
44098;SDS011;29762;50.086;14.364;2022-10-22T23:17:14;0.75;;;0.70;;
44098;SDS011;29762;50.086;14.364;2022-10-22T23:22:33;1.10;;;0.90;;
44098;SDS011;29762;50.086;14.364;2022-10-22T23:27:53;0.88;;;0.88;;
44098;SDS011;29762;50.086;14.364;2022-10-22T23:33:12;0.90;;;0.90;;
44098;SDS011;29762;50.086;14.364;2022-10-22T23:38:35;1.00;;;0.90;;
44098;SDS011;29762;50.086;14.364;2022-10-22T23:43:55;0.70;;;0.70;;
44098;SDS011;29762;50.086;14.364;2022-10-22T23:49:14;0.93;;;0.90;;
44098;SDS011;29762;50.086;14.364;2022-10-22T23:54:34;0.80;;;0.80;;
44098;SDS011;29762;50.086;14.364;2022-10-22T23:59:54;0.98;;;0.95;;
